Airfield :
LOGIN :

Register | Disclaimer

   EN    FR    IT 

 










Legend :    VFR   Marginal VFR   IFR   Intensive IFR   Very Intensive IFR
Visi :
Ceiling :
>= 8 km
>= 3000ft
5 to 8 km
1000 to 3000 ft
1500m to 5 km
500 to 1000 ft
800 to 1500m
200 to 500 ft
< 800m
< 200 ft
Symbols :   Thunderstorms  Fog  Heavy snow  Heavy precipitations  Wind > 20 kt
SIGMETs :     Misc.  Thunderstorms  Icing  Turbulence  Mountain Waves  Volcanic Ashes







- Airport Elevation : 57 ft
- IATA code : KRS


ENCN - Kristiansand Kjevik

CURRENT METAR :
  • 211020Z 20010KT CAVOK 16/04 Q1022

EXPIRED METARs :
  • 210950Z 23008KT 170V260 CAVOK 18/01 Q1023
  • 210920Z 25007KT CAVOK 18/01 Q1023
  • 210850Z 26009KT CAVOK 17/M00 Q1023
  • 210820Z VRB02KT CAVOK 15/03 Q1024
  • 210750Z VRB02KT CAVOK 13/02 Q1024

TAF TAF ENCN
Valid from the 21 at 09:00 until the 21 at 18:00 UTC


210800Z 2109/2118 VRB04KT CAVOK
BECMG 2109/2111 18012KT
No reported NOTAMs for that airfield.
1 SIGMET reported for the Norway FIR (ENOR) :
 
Severe mountain waves
ENBD SIGMET D01 VALID 210800/211200 ENVN
ENOR NORWAY FIR SEV MTW FCST WI N7020 E02015 - N7040 E02305 - N6940 E02255 - N6905 E01935 - N7020 E02015 SFC/FL120 STNR NC=



MET'MAP, your aeronautical weather chart ! - Copyright ORBIFLY December 2007 - Disclaimer

ORBIFLY MET'MAP TEAM :

Programming & Development : Alexandra Zaïnal
Concept & Development : Baudouin d'Aumeries
Co-Development & Prog : Marc-Olivier Méhu
Technical & hardware support : Manuel Goepfert

Contact : metmap@orbifly.com




SOURCES & CREDITS :

   NOAA